sensor_id;sensor_type;location;lat;lon;timestamp;temperature;humidity
66708;DHT22;53622;0.000;0.000;2023-04-26T00:01:22;21.20;52.80
66708;DHT22;53622;0.000;0.000;2023-04-26T00:03:54;21.20;52.90
66708;DHT22;53622;0.000;0.000;2023-04-26T00:06:24;21.20;52.90
66708;DHT22;53622;0.000;0.000;2023-04-26T00:08:54;21.20;52.90
66708;DHT22;53622;0.000;0.000;2023-04-26T00:11:23;21.20;53.60
66708;DHT22;53622;0.000;0.000;2023-04-26T00:13:52;21.10;52.80
66708;DHT22;53622;0.000;0.000;2023-04-26T00:16:23;21.10;52.90
66708;DHT22;53622;0.000;0.000;2023-04-26T00:18:52;21.10;52.80
66708;DHT22;53622;0.000;0.000;2023-04-26T00:21:23;21.10;53.00
66708;DHT22;53622;0.000;0.000;2023-04-26T00:23:52;21.20;52.90
66708;DHT22;53622;0.000;0.000;2023-04-26T00:26:21;21.10;52.80
66708;DHT22;53622;0.000;0.000;2023-04-26T00:28:51;21.10;52.80
66708;DHT22;53622;0.000;0.000;2023-04-26T00:31:22;21.10;52.70
66708;DHT22;53622;0.000;0.000;2023-04-26T00:33:52;21.10;52.80
66708;DHT22;53622;0.000;0.000;2023-04-26T00:36:21;21.10;52.80
66708;DHT22;53622;0.000;0.000;2023-04-26T00:38:50;21.10;52.80
66708;DHT22;53622;0.000;0.000;2023-04-26T00:41:20;21.10;52.90
66708;DHT22;53622;0.000;0.000;2023-04-26T00:43:49;21.10;52.80
66708;DHT22;53622;0.000;0.000;2023-04-26T00:46:19;21.10;52.80
66708;DHT22;53622;0.000;0.000;2023-04-26T00:48:50;21.10;52.90
66708;DHT22;53622;0.000;0.000;2023-04-26T00:51:20;21.10;52.80
66708;DHT22;53622;0.000;0.000;2023-04-26T00:53:50;21.00;52.70
66708;DHT22;53622;0.000;0.000;2023-04-26T00:56:20;21.10;52.70
66708;DHT22;53622;0.000;0.000;2023-04-26T00:58:51;21.00;52.70
66708;DHT22;53622;0.000;0.000;2023-04-26T01:01:20;21.00;52.70
66708;DHT22;53622;0.000;0.000;2023-04-26T01:03:51;21.00;52.70
66708;DHT22;53622;0.000;0.000;2023-04-26T01:06:21;21.00;52.70
66708;DHT22;53622;0.000;0.000;2023-04-26T01:08:51;21.00;52.70
66708;DHT22;53622;0.000;0.000;2023-04-26T01:11:22;21.00;52.70
66708;DHT22;53622;0.000;0.000;2023-04-26T01:13:52;21.00;52.80
66708;DHT22;53622;0.000;0.000;2023-04-26T01:16:22;21.00;52.70
66708;DHT22;53622;0.000;0.000;2023-04-26T01:18:53;21.00;52.80
66708;DHT22;53622;0.000;0.000;2023-04-26T01:21:23;21.00;52.70
66708;DHT22;53622;0.000;0.000;2023-04-26T01:23:56;21.00;52.70
66708;DHT22;53622;0.000;0.000;2023-04-26T01:26:25;21.00;52.70
66708;DHT22;53622;0.000;0.000;2023-04-26T01:28:55;21.00;52.80
66708;DHT22;53622;0.000;0.000;2023-04-26T01:31:24;21.00;52.70
66708;DHT22;53622;0.000;0.000;2023-04-26T01:33:53;21.00;52.70
66708;DHT22;53622;0.000;0.000;2023-04-26T01:36:22;20.90;52.60
66708;DHT22;53622;0.000;0.000;2023-04-26T01:38:52;20.90;52.60
66708;DHT22;53622;0.000;0.000;2023-04-26T01:41:23;20.90;52.70
66708;DHT22;53622;0.000;0.000;2023-04-26T01:43:52;20.90;52.60
66708;DHT22;53622;0.000;0.000;2023-04-26T01:46:22;20.90;52.60
66708;DHT22;53622;0.000;0.000;2023-04-26T01:48:51;20.90;52.60
66708;DHT22;53622;0.000;0.000;2023-04-26T01:51:22;20.90;52.50
66708;DHT22;53622;0.000;0.000;2023-04-26T01:53:51;20.90;52.50
66708;DHT22;53622;0.000;0.000;2023-04-26T01:56:24;20.90;52.50
66708;DHT22;53622;0.000;0.000;2023-04-26T01:58:53;20.90;52.60
66708;DHT22;53622;0.000;0.000;2023-04-26T02:01:24;20.90;52.60
66708;DHT22;53622;0.000;0.000;2023-04-26T02:03:53;20.90;52.50
66708;DHT22;53622;0.000;0.000;2023-04-26T02:06:22;20.90;52.50
66708;DHT22;53622;0.000;0.000;2023-04-26T02:08:52;20.90;52.60
66708;DHT22;53622;0.000;0.000;2023-04-26T02:11:23;20.90;52.50
66708;DHT22;53622;0.000;0.000;2023-04-26T02:13:53;20.90;52.60
66708;DHT22;53622;0.000;0.000;2023-04-26T02:16:23;20.90;52.50
66708;DHT22;53622;0.000;0.000;2023-04-26T02:18:52;20.90;52.60
66708;DHT22;53622;0.000;0.000;2023-04-26T02:21:21;20.90;52.50
66708;DHT22;53622;0.000;0.000;2023-04-26T02:23:51;20.90;52.50
66708;DHT22;53622;0.000;0.000;2023-04-26T02:26:21;20.90;52.50
66708;DHT22;53622;0.000;0.000;2023-04-26T02:28:51;20.90;52.50
66708;DHT22;53622;0.000;0.000;2023-04-26T02:31:21;20.90;52.50
66708;DHT22;53622;0.000;0.000;2023-04-26T02:33:50;20.90;52.50
66708;DHT22;53622;0.000;0.000;2023-04-26T02:36:19;20.90;52.70
66708;DHT22;53622;0.000;0.000;2023-04-26T02:38:49;20.80;52.50
66708;DHT22;53622;0.000;0.000;2023-04-26T02:41:19;20.80;52.40
66708;DHT22;53622;0.000;0.000;2023-04-26T02:43:49;20.80;52.40
66708;DHT22;53622;0.000;0.000;2023-04-26T02:46:19;20.80;52.50
66708;DHT22;53622;0.000;0.000;2023-04-26T02:48:49;20.80;52.40
66708;DHT22;53622;0.000;0.000;2023-04-26T02:51:19;20.80;52.40
66708;DHT22;53622;0.000;0.000;2023-04-26T02:53:48;20.80;52.30
66708;DHT22;53622;0.000;0.000;2023-04-26T02:56:18;20.90;52.30
66708;DHT22;53622;0.000;0.000;2023-04-26T02:58:47;20.80;52.30
66708;DHT22;53622;0.000;0.000;2023-04-26T03:01:18;20.80;52.40
66708;DHT22;53622;0.000;0.000;2023-04-26T03:03:48;20.80;52.30
66708;DHT22;53622;0.000;0.000;2023-04-26T03:06:17;20.80;52.40
66708;DHT22;53622;0.000;0.000;2023-04-26T03:08:46;20.80;52.30
66708;DHT22;53622;0.000;0.000;2023-04-26T03:11:16;20.80;52.40
66708;DHT22;53622;0.000;0.000;2023-04-26T03:13:45;20.80;52.30
66708;DHT22;53622;0.000;0.000;2023-04-26T03:16:14;20.80;52.30
66708;DHT22;53622;0.000;0.000;2023-04-26T03:18:45;20.80;52.40
66708;DHT22;53622;0.000;0.000;2023-04-26T03:21:15;20.80;52.30
66708;DHT22;53622;0.000;0.000;2023-04-26T03:23:44;20.80;52.30
66708;DHT22;53622;0.000;0.000;2023-04-26T03:26:14;20.80;52.30
66708;DHT22;53622;0.000;0.000;2023-04-26T03:28:43;20.80;52.40
66708;DHT22;53622;0.000;0.000;2023-04-26T03:31:13;20.70;52.30
66708;DHT22;53622;0.000;0.000;2023-04-26T03:33:42;20.80;52.30
66708;DHT22;53622;0.000;0.000;2023-04-26T03:36:13;20.80;52.30
66708;DHT22;53622;0.000;0.000;2023-04-26T03:38:42;20.80;52.20
66708;DHT22;53622;0.000;0.000;2023-04-26T03:41:13;20.70;52.30
66708;DHT22;53622;0.000;0.000;2023-04-26T03:43:42;20.70;52.20
66708;DHT22;53622;0.000;0.000;2023-04-26T03:46:11;20.70;52.30
66708;DHT22;53622;0.000;0.000;2023-04-26T03:48:40;20.70;52.10
66708;DHT22;53622;0.000;0.000;2023-04-26T03:51:10;20.70;52.10
66708;DHT22;53622;0.000;0.000;2023-04-26T03:53:40;20.70;52.10
66708;DHT22;53622;0.000;0.000;2023-04-26T03:56:10;20.70;52.10
66708;DHT22;53622;0.000;0.000;2023-04-26T03:58:39;20.70;52.20
66708;DHT22;53622;0.000;0.000;2023-04-26T04:01:08;20.70;52.10
66708;DHT22;53622;0.000;0.000;2023-04-26T04:03:38;20.70;52.20
66708;DHT22;53622;0.000;0.000;2023-04-26T04:06:09;20.70;52.10
66708;DHT22;53622;0.000;0.000;2023-04-26T04:08:40;20.70;52.10
66708;DHT22;53622;0.000;0.000;2023-04-26T04:11:10;20.70;52.10
66708;DHT22;53622;0.000;0.000;2023-04-26T04:13:40;20.70;52.10
66708;DHT22;53622;0.000;0.000;2023-04-26T04:16:10;20.70;52.10
66708;DHT22;53622;0.000;0.000;2023-04-26T04:18:40;20.70;52.10
66708;DHT22;53622;0.000;0.000;2023-04-26T04:21:09;20.70;52.10
66708;DHT22;53622;0.000;0.000;2023-04-26T04:23:40;20.70;52.10
66708;DHT22;53622;0.000;0.000;2023-04-26T04:26:11;20.70;52.20
66708;DHT22;53622;0.000;0.000;2023-04-26T04:28:41;20.70;52.20
66708;DHT22;53622;0.000;0.000;2023-04-26T04:31:12;20.70;52.10
66708;DHT22;53622;0.000;0.000;2023-04-26T04:33:42;20.70;52.10
66708;DHT22;53622;0.000;0.000;2023-04-26T04:36:12;20.60;52.80
66708;DHT22;53622;0.000;0.000;2023-04-26T04:38:46;20.70;52.20
66708;DHT22;53622;0.000;0.000;2023-04-26T04:41:18;20.70;52.10
66708;DHT22;53622;0.000;0.000;2023-04-26T04:43:49;20.60;52.30
66708;DHT22;53622;0.000;0.000;2023-04-26T04:46:20;20.70;52.30
66708;DHT22;53622;0.000;0.000;2023-04-26T04:48:50;20.70;52.10
66708;DHT22;53622;0.000;0.000;2023-04-26T04:51:20;20.80;52.30
66708;DHT22;53622;0.000;0.000;2023-04-26T04:53:51;20.70;52.00
66708;DHT22;53622;0.000;0.000;2023-04-26T04:56:20;20.70;52.10
66708;DHT22;53622;0.000;0.000;2023-04-26T04:58:50;20.70;52.50
66708;DHT22;53622;0.000;0.000;2023-04-26T05:01:21;20.80;52.70
66708;DHT22;53622;0.000;0.000;2023-04-26T05:03:54;20.80;53.20
66708;DHT22;53622;0.000;0.000;2023-04-26T05:06:25;20.80;53.70
66708;DHT22;53622;0.000;0.000;2023-04-26T05:08:56;20.80;53.30
66708;DHT22;53622;0.000;0.000;2023-04-26T05:11:26;20.90;53.80
66708;DHT22;53622;0.000;0.000;2023-04-26T05:13:56;20.90;53.70
66708;DHT22;53622;0.000;0.000;2023-04-26T05:16:25;20.90;53.90
66708;DHT22;53622;0.000;0.000;2023-04-26T05:18:55;20.90;53.90
66708;DHT22;53622;0.000;0.000;2023-04-26T05:21:24;20.90;54.20
66708;DHT22;53622;0.000;0.000;2023-04-26T05:23:54;20.90;54.20
66708;DHT22;53622;0.000;0.000;2023-04-26T05:26:24;20.90;54.00
66708;DHT22;53622;0.000;0.000;2023-04-26T05:29:12;20.90;54.20
66708;DHT22;53622;0.000;0.000;2023-04-26T05:32:10;20.90;53.90
66708;DHT22;53622;0.000;0.000;2023-04-26T05:34:40;20.90;53.90
66708;DHT22;53622;0.000;0.000;2023-04-26T05:37:14;20.90;54.00
66708;DHT22;53622;0.000;0.000;2023-04-26T05:39:44;20.90;54.00
66708;DHT22;53622;0.000;0.000;2023-04-26T05:42:14;20.90;53.80
66708;DHT22;53622;0.000;0.000;2023-04-26T05:44:45;20.90;54.10
66708;DHT22;53622;0.000;0.000;2023-04-26T05:47:14;20.90;54.10
66708;DHT22;53622;0.000;0.000;2023-04-26T05:49:44;20.90;54.00
66708;DHT22;53622;0.000;0.000;2023-04-26T05:52:13;20.90;53.90
66708;DHT22;53622;0.000;0.000;2023-04-26T05:54:42;20.90;53.60
66708;DHT22;53622;0.000;0.000;2023-04-26T05:57:13;20.90;53.70
66708;DHT22;53622;0.000;0.000;2023-04-26T05:59:43;20.80;53.60
66708;DHT22;53622;0.000;0.000;2023-04-26T06:02:13;20.90;53.80
66708;DHT22;53622;0.000;0.000;2023-04-26T06:04:42;20.80;53.70
66708;DHT22;53622;0.000;0.000;2023-04-26T06:07:15;20.80;53.70
66708;DHT22;53622;0.000;0.000;2023-04-26T06:09:46;20.80;53.80
66708;DHT22;53622;0.000;0.000;2023-04-26T06:12:19;20.90;53.90
66708;DHT22;53622;0.000;0.000;2023-04-26T06:14:50;20.90;53.80
66708;DHT22;53622;0.000;0.000;2023-04-26T06:17:25;20.80;53.50
66708;DHT22;53622;0.000;0.000;2023-04-26T06:19:55;20.80;53.70
66708;DHT22;53622;0.000;0.000;2023-04-26T06:22:24;20.80;53.60
66708;DHT22;53622;0.000;0.000;2023-04-26T06:24:54;20.80;53.60
66708;DHT22;53622;0.000;0.000;2023-04-26T06:27:24;20.80;53.70
66708;DHT22;53622;0.000;0.000;2023-04-26T06:29:54;20.80;53.70
66708;DHT22;53622;0.000;0.000;2023-04-26T06:32:25;20.80;53.80
66708;DHT22;53622;0.000;0.000;2023-04-26T06:34:55;20.80;53.60
66708;DHT22;53622;0.000;0.000;2023-04-26T06:37:25;20.70;53.50
66708;DHT22;53622;0.000;0.000;2023-04-26T06:39:54;20.80;53.60
66708;DHT22;53622;0.000;0.000;2023-04-26T06:42:25;20.80;53.60
66708;DHT22;53622;0.000;0.000;2023-04-26T06:45:10;20.70;53.50
66708;DHT22;53622;0.000;0.000;2023-04-26T06:47:39;20.70;53.60
66708;DHT22;53622;0.000;0.000;2023-04-26T06:50:10;20.70;53.70
66708;DHT22;53622;0.000;0.000;2023-04-26T06:52:39;20.70;53.50
66708;DHT22;53622;0.000;0.000;2023-04-26T06:55:09;20.80;53.60
66708;DHT22;53622;0.000;0.000;2023-04-26T06:57:40;20.80;53.60
66708;DHT22;53622;0.000;0.000;2023-04-26T07:00:10;20.80;53.50
66708;DHT22;53622;0.000;0.000;2023-04-26T07:02:40;20.80;53.50
66708;DHT22;53622;0.000;0.000;2023-04-26T07:05:10;20.80;53.50
66708;DHT22;53622;0.000;0.000;2023-04-26T07:07:39;20.80;53.50
66708;DHT22;53622;0.000;0.000;2023-04-26T07:10:09;20.80;53.60
66708;DHT22;53622;0.000;0.000;2023-04-26T07:12:40;20.80;53.40
66708;DHT22;53622;0.000;0.000;2023-04-26T07:15:10;20.80;53.30
66708;DHT22;53622;0.000;0.000;2023-04-26T07:17:39;20.90;53.10
66708;DHT22;53622;0.000;0.000;2023-04-26T07:20:09;20.90;53.00
66708;DHT22;53622;0.000;0.000;2023-04-26T07:22:38;20.90;52.90
66708;DHT22;53622;0.000;0.000;2023-04-26T07:25:08;20.90;52.80
66708;DHT22;53622;0.000;0.000;2023-04-26T07:27:37;21.00;53.10
66708;DHT22;53622;0.000;0.000;2023-04-26T07:30:09;21.00;53.00
66708;DHT22;53622;0.000;0.000;2023-04-26T07:32:39;21.00;53.00
66708;DHT22;53622;0.000;0.000;2023-04-26T07:35:09;21.00;52.90
66708;DHT22;53622;0.000;0.000;2023-04-26T07:37:43;21.00;52.90
66708;DHT22;53622;0.000;0.000;2023-04-26T07:40:13;21.10;53.00
66708;DHT22;53622;0.000;0.000;2023-04-26T07:42:42;21.10;52.90
66708;DHT22;53622;0.000;0.000;2023-04-26T07:45:13;21.10;52.90
66708;DHT22;53622;0.000;0.000;2023-04-26T07:47:43;21.10;53.10
66708;DHT22;53622;0.000;0.000;2023-04-26T07:50:12;21.10;53.00
66708;DHT22;53622;0.000;0.000;2023-04-26T07:52:42;21.10;53.30
66708;DHT22;53622;0.000;0.000;2023-04-26T07:55:11;21.10;53.20
66708;DHT22;53622;0.000;0.000;2023-04-26T07:57:42;21.10;53.20
66708;DHT22;53622;0.000;0.000;2023-04-26T08:00:14;21.10;53.30
66708;DHT22;53622;0.000;0.000;2023-04-26T08:02:44;21.20;53.20
66708;DHT22;53622;0.000;0.000;2023-04-26T08:05:14;21.20;53.50
66708;DHT22;53622;0.000;0.000;2023-04-26T08:07:44;21.20;53.20
66708;DHT22;53622;0.000;0.000;2023-04-26T08:10:13;21.20;53.30
66708;DHT22;53622;0.000;0.000;2023-04-26T08:12:43;21.20;53.60
66708;DHT22;53622;0.000;0.000;2023-04-26T08:15:13;21.20;53.50
66708;DHT22;53622;0.000;0.000;2023-04-26T08:17:43;21.20;53.40
66708;DHT22;53622;0.000;0.000;2023-04-26T08:20:14;21.20;53.30
66708;DHT22;53622;0.000;0.000;2023-04-26T08:22:43;21.20;53.20
66708;DHT22;53622;0.000;0.000;2023-04-26T08:25:13;21.20;52.90
66708;DHT22;53622;0.000;0.000;2023-04-26T08:27:42;21.20;53.00
66708;DHT22;53622;0.000;0.000;2023-04-26T08:30:14;21.20;53.10
66708;DHT22;53622;0.000;0.000;2023-04-26T08:32:43;21.20;53.00
66708;DHT22;53622;0.000;0.000;2023-04-26T08:35:13;21.20;53.00
66708;DHT22;53622;0.000;0.000;2023-04-26T08:37:42;21.20;53.10
66708;DHT22;53622;0.000;0.000;2023-04-26T08:40:12;21.20;53.20
66708;DHT22;53622;0.000;0.000;2023-04-26T08:42:41;21.20;53.20
66708;DHT22;53622;0.000;0.000;2023-04-26T08:45:14;21.20;53.30
66708;DHT22;53622;0.000;0.000;2023-04-26T08:47:47;21.20;53.80
66708;DHT22;53622;0.000;0.000;2023-04-26T08:50:19;21.30;53.10
66708;DHT22;53622;0.000;0.000;2023-04-26T08:52:50;21.30;53.20
66708;DHT22;53622;0.000;0.000;2023-04-26T08:55:19;21.30;53.30
66708;DHT22;53622;0.000;0.000;2023-04-26T08:57:49;21.30;53.00
66708;DHT22;53622;0.000;0.000;2023-04-26T09:00:20;21.30;53.00
66708;DHT22;53622;0.000;0.000;2023-04-26T09:02:51;21.30;53.00
66708;DHT22;53622;0.000;0.000;2023-04-26T09:05:21;21.30;52.90
66708;DHT22;53622;0.000;0.000;2023-04-26T09:07:56;21.30;53.00
66708;DHT22;53622;0.000;0.000;2023-04-26T09:10:29;21.30;52.90
66708;DHT22;53622;0.000;0.000;2023-04-26T09:12:59;21.30;54.00
66708;DHT22;53622;0.000;0.000;2023-04-26T09:15:30;21.30;53.00
66708;DHT22;53622;0.000;0.000;2023-04-26T09:18:17;21.30;52.90
66708;DHT22;53622;0.000;0.000;2023-04-26T09:21:01;21.30;52.90
66708;DHT22;53622;0.000;0.000;2023-04-26T09:23:31;21.30;52.80
66708;DHT22;53622;0.000;0.000;2023-04-26T09:26:17;21.30;52.90
66708;DHT22;53622;0.000;0.000;2023-04-26T09:28:47;21.30;53.00
66708;DHT22;53622;0.000;0.000;2023-04-26T09:31:35;21.30;53.00
66708;DHT22;53622;0.000;0.000;2023-04-26T09:34:06;21.30;53.00
66708;DHT22;53622;0.000;0.000;2023-04-26T09:36:49;21.20;53.20
66708;DHT22;53622;0.000;0.000;2023-04-26T09:39:32;21.20;53.20
66708;DHT22;53622;0.000;0.000;2023-04-26T09:42:03;21.30;53.00
66708;DHT22;53622;0.000;0.000;2023-04-26T09:44:32;21.20;52.90
66708;DHT22;53622;0.000;0.000;2023-04-26T09:47:05;21.20;53.00
66708;DHT22;53622;0.000;0.000;2023-04-26T09:49:44;21.30;53.10
66708;DHT22;53622;0.000;0.000;2023-04-26T09:52:16;21.50;54.70
66708;DHT22;53622;0.000;0.000;2023-04-26T09:54:47;21.50;55.20
66708;DHT22;53622;0.000;0.000;2023-04-26T09:57:17;21.60;54.90
66708;DHT22;53622;0.000;0.000;2023-04-26T09:59:50;21.60;55.00
66708;DHT22;53622;0.000;0.000;2023-04-26T10:02:24;21.70;55.10
66708;DHT22;53622;0.000;0.000;2023-04-26T10:04:55;21.70;55.10
66708;DHT22;53622;0.000;0.000;2023-04-26T10:07:27;21.80;55.20
66708;DHT22;53622;0.000;0.000;2023-04-26T10:09:58;21.80;55.30
66708;DHT22;53622;0.000;0.000;2023-04-26T10:12:27;21.80;55.20
66708;DHT22;53622;0.000;0.000;2023-04-26T10:14:57;21.90;55.10
66708;DHT22;53622;0.000;0.000;2023-04-26T10:17:28;22.00;55.00
66708;DHT22;53622;0.000;0.000;2023-04-26T10:19:59;22.00;54.80
66708;DHT22;53622;0.000;0.000;2023-04-26T10:22:32;22.00;54.80
66708;DHT22;53622;0.000;0.000;2023-04-26T10:25:07;22.00;54.90
66708;DHT22;53622;0.000;0.000;2023-04-26T10:27:47;22.00;55.10
66708;DHT22;53622;0.000;0.000;2023-04-26T10:30:21;22.00;55.10
66708;DHT22;53622;0.000;0.000;2023-04-26T10:33:15;22.00;55.10
66708;DHT22;53622;0.000;0.000;2023-04-26T10:36:06;22.00;54.90
66708;DHT22;53622;0.000;0.000;2023-04-26T10:38:38;22.10;55.10
66708;DHT22;53622;0.000;0.000;2023-04-26T10:41:26;22.00;55.00
66708;DHT22;53622;0.000;0.000;2023-04-26T10:43:57;22.10;54.90
66708;DHT22;53622;0.000;0.000;2023-04-26T10:46:38;22.10;55.10
66708;DHT22;53622;0.000;0.000;2023-04-26T10:49:16;22.10;54.80
66708;DHT22;53622;0.000;0.000;2023-04-26T10:52:09;22.10;54.70
66708;DHT22;53622;0.000;0.000;2023-04-26T10:54:54;22.10;54.70
66708;DHT22;53622;0.000;0.000;2023-04-26T10:57:48;22.10;54.80
66708;DHT22;53622;0.000;0.000;2023-04-26T11:00:19;22.20;54.50
66708;DHT22;53622;0.000;0.000;2023-04-26T11:02:58;22.20;54.60
66708;DHT22;53622;0.000;0.000;2023-04-26T11:08:26;22.20;54.80
66708;DHT22;53622;0.000;0.000;2023-04-26T11:11:04;22.20;54.90
66708;DHT22;53622;0.000;0.000;2023-04-26T11:13:35;22.20;54.90
66708;DHT22;53622;0.000;0.000;2023-04-26T11:16:06;22.20;55.10
66708;DHT22;53622;0.000;0.000;2023-04-26T11:18:38;22.20;55.20
66708;DHT22;53622;0.000;0.000;2023-04-26T11:21:09;22.20;55.40
66708;DHT22;53622;0.000;0.000;2023-04-26T11:23:40;22.30;55.30
66708;DHT22;53622;0.000;0.000;2023-04-26T11:26:10;22.30;55.20
66708;DHT22;53622;0.000;0.000;2023-04-26T11:28:39;22.30;55.10
66708;DHT22;53622;0.000;0.000;2023-04-26T11:31:11;22.30;55.20
66708;DHT22;53622;0.000;0.000;2023-04-26T11:33:41;22.30;90.40
66708;DHT22;53622;0.000;0.000;2023-04-26T11:36:11;22.30;55.40
66708;DHT22;53622;0.000;0.000;2023-04-26T11:38:42;22.30;55.40
66708;DHT22;53622;0.000;0.000;2023-04-26T11:41:12;22.30;55.60
66708;DHT22;53622;0.000;0.000;2023-04-26T11:43:41;22.20;55.50
66708;DHT22;53622;0.000;0.000;2023-04-26T11:46:10;22.20;55.50
66708;DHT22;53622;0.000;0.000;2023-04-26T11:48:39;22.20;55.80
66708;DHT22;53622;0.000;0.000;2023-04-26T11:51:09;22.20;55.60
66708;DHT22;53622;0.000;0.000;2023-04-26T11:53:40;22.30;55.90
66708;DHT22;53622;0.000;0.000;2023-04-26T11:56:15;22.30;55.80
66708;DHT22;53622;0.000;0.000;2023-04-26T11:58:45;22.30;55.90
66708;DHT22;53622;0.000;0.000;2023-04-26T12:01:21;22.30;55.80
66708;DHT22;53622;0.000;0.000;2023-04-26T12:03:51;22.40;56.00
66708;DHT22;53622;0.000;0.000;2023-04-26T12:06:28;22.40;56.00
66708;DHT22;53622;0.000;0.000;2023-04-26T12:09:01;22.40;56.00
66708;DHT22;53622;0.000;0.000;2023-04-26T12:11:33;22.40;55.80
66708;DHT22;53622;0.000;0.000;2023-04-26T12:14:03;22.40;55.90
66708;DHT22;53622;0.000;0.000;2023-04-26T12:16:35;22.50;56.00
66708;DHT22;53622;0.000;0.000;2023-04-26T12:19:05;22.50;55.90
66708;DHT22;53622;0.000;0.000;2023-04-26T12:21:40;22.50;55.90
66708;DHT22;53622;0.000;0.000;2023-04-26T12:24:21;22.60;56.00
66708;DHT22;53622;0.000;0.000;2023-04-26T12:26:52;22.60;55.80
66708;DHT22;53622;0.000;0.000;2023-04-26T12:29:21;22.60;55.80
66708;DHT22;53622;0.000;0.000;2023-04-26T12:31:50;22.50;55.90
66708;DHT22;53622;0.000;0.000;2023-04-26T12:34:20;22.60;55.90
66708;DHT22;53622;0.000;0.000;2023-04-26T12:36:49;22.60;56.00
66708;DHT22;53622;0.000;0.000;2023-04-26T12:39:19;22.60;56.10
66708;DHT22;53622;0.000;0.000;2023-04-26T12:41:48;22.60;56.00
66708;DHT22;53622;0.000;0.000;2023-04-26T12:44:19;22.60;56.00
66708;DHT22;53622;0.000;0.000;2023-04-26T12:46:49;22.60;56.00
66708;DHT22;53622;0.000;0.000;2023-04-26T12:49:19;22.70;56.10
66708;DHT22;53622;0.000;0.000;2023-04-26T12:51:48;22.70;56.00
66708;DHT22;53622;0.000;0.000;2023-04-26T12:54:17;22.70;55.90
66708;DHT22;53622;0.000;0.000;2023-04-26T12:56:46;22.70;55.80
66708;DHT22;53622;0.000;0.000;2023-04-26T12:59:17;22.80;55.90
66708;DHT22;53622;0.000;0.000;2023-04-26T13:01:46;22.80;56.00
66708;DHT22;53622;0.000;0.000;2023-04-26T13:04:16;22.80;56.00
66708;DHT22;53622;0.000;0.000;2023-04-26T13:06:45;22.80;56.20
66708;DHT22;53622;0.000;0.000;2023-04-26T13:09:15;22.80;56.00
66708;DHT22;53622;0.000;0.000;2023-04-26T13:11:44;22.80;56.10
66708;DHT22;53622;0.000;0.000;2023-04-26T13:14:13;22.80;56.20
66708;DHT22;53622;0.000;0.000;2023-04-26T13:16:44;22.80;56.10
66708;DHT22;53622;0.000;0.000;2023-04-26T13:19:13;22.80;56.20
66708;DHT22;53622;0.000;0.000;2023-04-26T13:21:42;22.80;56.20
66708;DHT22;53622;0.000;0.000;2023-04-26T13:24:12;22.80;55.60
66708;DHT22;53622;0.000;0.000;2023-04-26T13:26:41;22.80;56.00
66708;DHT22;53622;0.000;0.000;2023-04-26T13:29:10;22.80;56.10
66708;DHT22;53622;0.000;0.000;2023-04-26T13:31:39;22.80;56.10
66708;DHT22;53622;0.000;0.000;2023-04-26T13:34:11;22.80;56.00
66708;DHT22;53622;0.000;0.000;2023-04-26T13:36:40;22.80;56.10
66708;DHT22;53622;0.000;0.000;2023-04-26T13:39:10;22.90;56.10
66708;DHT22;53622;0.000;0.000;2023-04-26T13:41:39;22.90;56.00
66708;DHT22;53622;0.000;0.000;2023-04-26T13:44:08;22.90;56.00
66708;DHT22;53622;0.000;0.000;2023-04-26T13:46:37;22.90;56.00
66708;DHT22;53622;0.000;0.000;2023-04-26T13:49:07;22.90;55.90
66708;DHT22;53622;0.000;0.000;2023-04-26T13:51:38;22.90;56.10
66708;DHT22;53622;0.000;0.000;2023-04-26T13:54:08;22.90;56.20
66708;DHT22;53622;0.000;0.000;2023-04-26T13:56:38;22.90;56.00
66708;DHT22;53622;0.000;0.000;2023-04-26T13:59:07;22.90;56.00
66708;DHT22;53622;0.000;0.000;2023-04-26T14:01:37;22.90;56.10
66708;DHT22;53622;0.000;0.000;2023-04-26T14:04:07;22.90;55.90
66708;DHT22;53622;0.000;0.000;2023-04-26T14:06:38;22.90;55.80
66708;DHT22;53622;0.000;0.000;2023-04-26T14:09:07;22.90;55.90
66708;DHT22;53622;0.000;0.000;2023-04-26T14:11:37;22.90;55.90
66708;DHT22;53622;0.000;0.000;2023-04-26T14:14:06;22.90;55.90
66708;DHT22;53622;0.000;0.000;2023-04-26T14:16:35;22.90;56.00
66708;DHT22;53622;0.000;0.000;2023-04-26T14:19:04;22.90;56.00
66708;DHT22;53622;0.000;0.000;2023-04-26T14:21:34;22.90;55.80
66708;DHT22;53622;0.000;0.000;2023-04-26T14:24:05;22.90;55.80
66708;DHT22;53622;0.000;0.000;2023-04-26T14:26:34;22.90;55.90
66708;DHT22;53622;0.000;0.000;2023-04-26T14:29:04;22.90;56.00
66708;DHT22;53622;0.000;0.000;2023-04-26T14:31:33;22.90;55.90
66708;DHT22;53622;0.000;0.000;2023-04-26T14:34:02;22.90;55.90
66708;DHT22;53622;0.000;0.000;2023-04-26T14:36:32;22.90;55.80
66708;DHT22;53622;0.000;0.000;2023-04-26T14:39:01;23.00;55.90
66708;DHT22;53622;0.000;0.000;2023-04-26T14:41:32;23.00;55.90
66708;DHT22;53622;0.000;0.000;2023-04-26T14:44:01;23.00;56.00
66708;DHT22;53622;0.000;0.000;2023-04-26T14:46:30;23.00;55.90
66708;DHT22;53622;0.000;0.000;2023-04-26T14:49:00;23.00;55.90
66708;DHT22;53622;0.000;0.000;2023-04-26T14:51:29;22.90;56.00
66708;DHT22;53622;0.000;0.000;2023-04-26T14:53:58;23.00;56.00
66708;DHT22;53622;0.000;0.000;2023-04-26T14:56:32;22.90;55.90
66708;DHT22;53622;0.000;0.000;2023-04-26T14:59:02;22.90;55.90
66708;DHT22;53622;0.000;0.000;2023-04-26T15:01:32;22.90;55.80
66708;DHT22;53622;0.000;0.000;2023-04-26T15:04:01;22.90;55.70
66708;DHT22;53622;0.000;0.000;2023-04-26T15:06:30;22.90;55.90
66708;DHT22;53622;0.000;0.000;2023-04-26T15:09:00;22.90;55.80
66708;DHT22;53622;0.000;0.000;2023-04-26T15:11:32;22.90;55.80
66708;DHT22;53622;0.000;0.000;2023-04-26T15:14:01;22.90;55.90
66708;DHT22;53622;0.000;0.000;2023-04-26T15:16:31;22.90;55.90
66708;DHT22;53622;0.000;0.000;2023-04-26T15:19:00;23.00;55.70
66708;DHT22;53622;0.000;0.000;2023-04-26T15:21:30;22.90;55.60
66708;DHT22;53622;0.000;0.000;2023-04-26T15:24:01;23.00;55.70
66708;DHT22;53622;0.000;0.000;2023-04-26T15:26:32;22.90;55.70
66708;DHT22;53622;0.000;0.000;2023-04-26T15:29:01;22.90;55.70
66708;DHT22;53622;0.000;0.000;2023-04-26T15:31:30;22.90;55.70
66708;DHT22;53622;0.000;0.000;2023-04-26T15:34:00;23.00;55.80
66708;DHT22;53622;0.000;0.000;2023-04-26T15:36:30;23.00;55.70
66708;DHT22;53622;0.000;0.000;2023-04-26T15:38:59;23.00;55.80
66708;DHT22;53622;0.000;0.000;2023-04-26T15:41:29;23.00;56.20
66708;DHT22;53622;0.000;0.000;2023-04-26T15:44:00;23.00;55.50
66708;DHT22;53622;0.000;0.000;2023-04-26T15:46:29;22.90;55.40
66708;DHT22;53622;0.000;0.000;2023-04-26T15:48:58;23.00;55.60
66708;DHT22;53622;0.000;0.000;2023-04-26T15:51:28;22.90;55.40
66708;DHT22;53622;0.000;0.000;2023-04-26T15:53:57;22.90;55.50
66708;DHT22;53622;0.000;0.000;2023-04-26T15:56:27;22.90;55.50
66708;DHT22;53622;0.000;0.000;2023-04-26T15:58:56;22.90;55.70
66708;DHT22;53622;0.000;0.000;2023-04-26T16:01:27;22.90;55.70
66708;DHT22;53622;0.000;0.000;2023-04-26T16:03:56;22.90;55.40
66708;DHT22;53622;0.000;0.000;2023-04-26T16:06:26;22.90;55.60
66708;DHT22;53622;0.000;0.000;2023-04-26T16:08:55;22.90;55.60
66708;DHT22;53622;0.000;0.000;2023-04-26T16:11:25;23.00;55.20